ITY37QK LICJ-LIRN
Flight info
| Callsign | ITY37QK |
|---|---|
| Flight time | 0h 57m |
| Altitude | 30000 |
| Route | ROSAS DCT AMANO DCT DELER DCT SOR |
| Aircraft | A320/M-SDE3FGHIRWY/LB1 |
Departure
| Time | 2026-04-29 19:53 |
|---|---|
| Airport | Falcone–Borsellino Airport (LICJ) |
Arrival
| Time | 2026-04-29 20:51 |
|---|---|
| Airport | Naples International Airport (LIRN) |
| Time | Latitude | Longitude | Altitude | Speed | Heading |
|---|---|---|---|---|---|
| 2026-04-29 19:30 | 38.18571 | 13.10664 | 53 ft | 0 kts | 337° |
| 2026-04-29 19:46 | 38.18569 | 13.10665 | 53 ft | 1 kts | 337° |
| 2026-04-29 19:46 | 38.18552 | 13.10674 | 50 ft | 3 kts | 337° |
| 2026-04-29 19:46 | 38.18534 | 13.10684 | 51 ft | 2 kts | 337° |
| 2026-04-29 19:47 | 38.18517 | 13.10692 | 53 ft | 3 kts | 353° |
| 2026-04-29 19:47 | 38.18500 | 13.10690 | 48 ft | 3 kts | 36° |
| 2026-04-29 19:47 | 38.18487 | 13.10674 | 49 ft | 2 kts | 59° |
| 2026-04-29 19:47 | 38.18484 | 13.10667 | 49 ft | 0 kts | 59° |
| 2026-04-29 19:48 | 38.18484 | 13.10666 | 49 ft | 0 kts | 59° |
| 2026-04-29 19:49 | 38.18484 | 13.10667 | 49 ft | 0 kts | 59° |
| 2026-04-29 19:49 | 38.18486 | 13.10671 | 49 ft | 1 kts | 59° |
| 2026-04-29 19:50 | 38.18489 | 13.10678 | 49 ft | 1 kts | 59° |
| 2026-04-29 19:50 | 38.18494 | 13.10688 | 48 ft | 3 kts | 59° |
| 2026-04-29 19:50 | 38.18507 | 13.10745 | 53 ft | 10 kts | 94° |
| 2026-04-29 19:50 | 38.18474 | 13.10863 | 53 ft | 17 kts | 109° |
| 2026-04-29 19:51 | 38.18426 | 13.10986 | 53 ft | 18 kts | 91° |
| 2026-04-29 19:51 | 38.18483 | 13.11165 | 50 ft | 26 kts | 67° |
| 2026-04-29 19:51 | 38.18562 | 13.11399 | 53 ft | 30 kts | 67° |
| 2026-04-29 19:51 | 38.18624 | 13.11633 | 53 ft | 22 kts | 100° |
| 2026-04-29 19:52 | 38.18594 | 13.11835 | 53 ft | 20 kts | 97° |
| 2026-04-29 19:52 | 38.18505 | 13.11866 | 51 ft | 12 kts | 232° |
| 2026-04-29 19:52 | 38.18478 | 13.11766 | 53 ft | 16 kts | 245° |
| 2026-04-29 19:52 | 38.18362 | 13.11419 | 53 ft | 78 kts | 247° |
| 2026-04-29 19:53 | 38.18063 | 13.10528 | 53 ft | 138 kts | 247° |
| 2026-04-29 19:53 | 38.17636 | 13.09243 | 271 ft | 165 kts | 247° |
| 2026-04-29 19:53 | 38.17182 | 13.07886 | 898 ft | 170 kts | 246° |
| 2026-04-29 19:53 | 38.16719 | 13.06466 | 1437 ft | 180 kts | 246° |
| 2026-04-29 19:54 | 38.15644 | 13.03157 | 2095 ft | 228 kts | 253° |
| 2026-04-29 19:54 | 38.15452 | 13.01051 | 2518 ft | 254 kts | 272° |
| 2026-04-29 19:54 | 38.15872 | 12.98788 | 3139 ft | 272 kts | 293° |
| 2026-04-29 19:55 | 38.16971 | 12.96798 | 3969 ft | 281 kts | 317° |
| 2026-04-29 19:55 | 38.18660 | 12.95546 | 4903 ft | 285 kts | 343° |
| 2026-04-29 19:55 | 38.20640 | 12.95359 | 5795 ft | 289 kts | 10° |
| 2026-04-29 19:55 | 38.22500 | 12.96329 | 6667 ft | 292 kts | 35° |
| 2026-04-29 19:56 | 38.24158 | 12.97834 | 7541 ft | 294 kts | 36° |
| 2026-04-29 19:56 | 38.25820 | 12.99364 | 8413 ft | 296 kts | 36° |
| 2026-04-29 19:56 | 38.27475 | 13.00887 | 9283 ft | 299 kts | 35° |
| 2026-04-29 19:56 | 38.29170 | 13.02444 | 10126 ft | 302 kts | 34° |
| 2026-04-29 19:57 | 38.30931 | 13.04054 | 10499 ft | 323 kts | 34° |
| 2026-04-29 19:57 | 38.32197 | 13.05208 | 10669 ft | 339 kts | 34° |
| 2026-04-29 19:57 | 38.34805 | 13.07581 | 11360 ft | 354 kts | 34° |
| 2026-04-29 19:57 | 38.36822 | 13.09422 | 12089 ft | 358 kts | 33° |
| 2026-04-29 19:58 | 38.38855 | 13.11286 | 12837 ft | 362 kts | 34° |
| 2026-04-29 19:58 | 38.40904 | 13.13165 | 13595 ft | 365 kts | 34° |
| 2026-04-29 19:58 | 38.42973 | 13.15064 | 14282 ft | 368 kts | 33° |
| 2026-04-29 19:58 | 38.45062 | 13.16981 | 14925 ft | 371 kts | 33° |
| 2026-04-29 19:59 | 38.47168 | 13.18916 | 15572 ft | 375 kts | 33° |
| 2026-04-29 19:59 | 38.49294 | 13.20872 | 16212 ft | 378 kts | 33° |
| 2026-04-29 19:59 | 38.51441 | 13.22843 | 16840 ft | 382 kts | 33° |
| 2026-04-29 19:59 | 38.53604 | 13.24829 | 17461 ft | 385 kts | 33° |
| 2026-04-29 20:00 | 38.55791 | 13.26839 | 18090 ft | 389 kts | 33° |
| 2026-04-29 20:00 | 38.57995 | 13.28869 | 18653 ft | 392 kts | 33° |
| 2026-04-29 20:00 | 38.60218 | 13.30919 | 19199 ft | 395 kts | 33° |
| 2026-04-29 20:00 | 38.62461 | 13.32989 | 19748 ft | 399 kts | 33° |
| 2026-04-29 20:01 | 38.64719 | 13.35074 | 20290 ft | 402 kts | 34° |
| 2026-04-29 20:01 | 38.66998 | 13.37182 | 20828 ft | 406 kts | 34° |
| 2026-04-29 20:01 | 38.69292 | 13.39304 | 21365 ft | 409 kts | 34° |
| 2026-04-29 20:01 | 38.71611 | 13.41452 | 21890 ft | 413 kts | 34° |
| 2026-04-29 20:02 | 38.73946 | 13.43617 | 22406 ft | 416 kts | 34° |
| 2026-04-29 20:02 | 38.76303 | 13.45806 | 22909 ft | 420 kts | 34° |
| 2026-04-29 20:02 | 38.78674 | 13.48009 | 23402 ft | 423 kts | 34° |
| 2026-04-29 20:02 | 38.80254 | 13.49479 | 23709 ft | 425 kts | 34° |
| 2026-04-29 20:03 | 38.83484 | 13.52453 | 24240 ft | 429 kts | 31° |
| 2026-04-29 20:03 | 38.86095 | 13.54305 | 24630 ft | 429 kts | 21° |
| 2026-04-29 20:03 | 38.88885 | 13.55652 | 25018 ft | 430 kts | 16° |
| 2026-04-29 20:03 | 38.91717 | 13.56910 | 25398 ft | 432 kts | 16° |
| 2026-04-29 20:04 | 38.94562 | 13.58180 | 25772 ft | 434 kts | 16° |
| 2026-04-29 20:04 | 38.97391 | 13.59449 | 26139 ft | 437 kts | 16° |
| 2026-04-29 20:04 | 39.00267 | 13.60740 | 26500 ft | 439 kts | 16° |
| 2026-04-29 20:04 | 39.03157 | 13.62037 | 26883 ft | 441 kts | 16° |
| 2026-04-29 20:05 | 39.06066 | 13.63342 | 27245 ft | 443 kts | 16° |
| 2026-04-29 20:05 | 39.08986 | 13.64653 | 27596 ft | 446 kts | 16° |
| 2026-04-29 20:05 | 39.11919 | 13.65976 | 27944 ft | 448 kts | 16° |
| 2026-04-29 20:05 | 39.14869 | 13.67310 | 28281 ft | 450 kts | 16° |
| 2026-04-29 20:06 | 39.17831 | 13.68654 | 28607 ft | 453 kts | 16° |
| 2026-04-29 20:06 | 39.20812 | 13.70003 | 28921 ft | 455 kts | 16° |
| 2026-04-29 20:06 | 39.23804 | 13.71353 | 29242 ft | 457 kts | 17° |
| 2026-04-29 20:06 | 39.26810 | 13.72711 | 29548 ft | 459 kts | 17° |
| 2026-04-29 20:07 | 39.29827 | 13.74075 | 29836 ft | 461 kts | 17° |
| 2026-04-29 20:07 | 39.32857 | 13.75445 | 30031 ft | 461 kts | 17° |
| 2026-04-29 20:07 | 39.38807 | 13.78142 | 30052 ft | 447 kts | 17° |
| 2026-04-29 20:08 | 39.43680 | 13.80353 | 30071 ft | 445 kts | 17° |
| 2026-04-29 20:08 | 39.50493 | 13.83465 | 30069 ft | 444 kts | 17° |
| 2026-04-29 20:09 | 39.56318 | 13.86132 | 30059 ft | 443 kts | 16° |
| 2026-04-29 20:09 | 39.62129 | 13.88808 | 30067 ft | 443 kts | 16° |
| 2026-04-29 20:10 | 39.67939 | 13.91477 | 30060 ft | 442 kts | 16° |
| 2026-04-29 20:10 | 39.73743 | 13.94149 | 30052 ft | 442 kts | 16° |
| 2026-04-29 20:11 | 39.79506 | 13.96799 | 30063 ft | 442 kts | 16° |
| 2026-04-29 20:11 | 39.82408 | 13.98138 | 29802 ft | 443 kts | 16° |
| 2026-04-29 20:11 | 39.85316 | 13.99482 | 29517 ft | 444 kts | 16° |
| 2026-04-29 20:12 | 39.88220 | 14.00825 | 29135 ft | 441 kts | 16° |
| 2026-04-29 20:12 | 39.91101 | 14.02160 | 28502 ft | 438 kts | 16° |
| 2026-04-29 20:12 | 39.93957 | 14.03484 | 27894 ft | 434 kts | 16° |
| 2026-04-29 20:12 | 39.96788 | 14.04797 | 27290 ft | 430 kts | 16° |
| 2026-04-29 20:13 | 39.99598 | 14.06105 | 26693 ft | 427 kts | 17° |
| 2026-04-29 20:13 | 40.01484 | 14.06985 | 26292 ft | 425 kts | 17° |
| 2026-04-29 20:13 | 40.05154 | 14.08697 | 25525 ft | 421 kts | 16° |
| 2026-04-29 20:13 | 40.07913 | 14.09981 | 24931 ft | 419 kts | 16° |
| 2026-04-29 20:14 | 40.10647 | 14.11254 | 24368 ft | 416 kts | 16° |
| 2026-04-29 20:14 | 40.13369 | 14.12522 | 23811 ft | 414 kts | 17° |
| 2026-04-29 20:14 | 40.16071 | 14.13780 | 23231 ft | 411 kts | 17° |
| 2026-04-29 20:14 | 40.18747 | 14.15028 | 22719 ft | 406 kts | 17° |
| 2026-04-29 20:15 | 40.21393 | 14.16265 | 22240 ft | 401 kts | 17° |
| 2026-04-29 20:15 | 40.24011 | 14.17486 | 21762 ft | 397 kts | 17° |
| 2026-04-29 20:15 | 40.26606 | 14.18695 | 21309 ft | 393 kts | 16° |
| 2026-04-29 20:15 | 40.29171 | 14.19888 | 20840 ft | 389 kts | 16° |
| 2026-04-29 20:16 | 40.31681 | 14.21056 | 20375 ft | 386 kts | 16° |
| 2026-04-29 20:16 | 40.34235 | 14.22247 | 19900 ft | 383 kts | 17° |
| 2026-04-29 20:16 | 40.36712 | 14.23401 | 19424 ft | 381 kts | 17° |
| 2026-04-29 20:16 | 40.39208 | 14.24561 | 18937 ft | 379 kts | 17° |
| 2026-04-29 20:17 | 40.41689 | 14.25718 | 18439 ft | 378 kts | 17° |
| 2026-04-29 20:17 | 40.44161 | 14.26878 | 17898 ft | 376 kts | 17° |
| 2026-04-29 20:17 | 40.46615 | 14.28033 | 17404 ft | 373 kts | 17° |
| 2026-04-29 20:17 | 40.49052 | 14.29180 | 16906 ft | 371 kts | 17° |
| 2026-04-29 20:18 | 40.51477 | 14.30318 | 16420 ft | 368 kts | 17° |
| 2026-04-29 20:18 | 40.53881 | 14.31448 | 15933 ft | 366 kts | 17° |
| 2026-04-29 20:18 | 40.56264 | 14.32606 | 15446 ft | 365 kts | 21° |
| 2026-04-29 20:18 | 40.58486 | 14.34224 | 14974 ft | 366 kts | 33° |
| 2026-04-29 20:19 | 40.60420 | 14.36398 | 14550 ft | 366 kts | 43° |
| 2026-04-29 20:19 | 40.62250 | 14.38692 | 14116 ft | 361 kts | 34° |
| 2026-04-29 20:19 | 40.64428 | 14.40221 | 13670 ft | 352 kts | 15° |
| 2026-04-29 20:19 | 40.66806 | 14.40768 | 13251 ft | 344 kts | 357° |
| 2026-04-29 20:20 | 40.69139 | 14.40341 | 12823 ft | 336 kts | 340° |
| 2026-04-29 20:20 | 40.71224 | 14.39035 | 12406 ft | 331 kts | 324° |
| 2026-04-29 20:20 | 40.73104 | 14.37292 | 11995 ft | 330 kts | 323° |
| 2026-04-29 20:20 | 40.74846 | 14.35359 | 11580 ft | 326 kts | 308° |
| 2026-04-29 20:21 | 40.75913 | 14.32767 | 11179 ft | 322 kts | 285° |
| 2026-04-29 20:21 | 40.76136 | 14.29840 | 10594 ft | 325 kts | 264° |
| 2026-04-29 20:21 | 40.75407 | 14.27045 | 10277 ft | 320 kts | 240° |
| 2026-04-29 20:21 | 40.74174 | 14.24667 | 10155 ft | 307 kts | 236° |
| 2026-04-29 20:22 | 40.72972 | 14.22402 | 10032 ft | 295 kts | 237° |
| 2026-04-29 20:22 | 40.71816 | 14.20222 | 9891 ft | 285 kts | 236° |
| 2026-04-29 20:22 | 40.70691 | 14.18105 | 9662 ft | 281 kts | 236° |
| 2026-04-29 20:22 | 40.69591 | 14.16036 | 9513 ft | 270 kts | 236° |
| 2026-04-29 20:23 | 40.68546 | 14.14071 | 9382 ft | 260 kts | 236° |
| 2026-04-29 20:23 | 40.67517 | 14.12138 | 9250 ft | 249 kts | 236° |
| 2026-04-29 20:23 | 40.66546 | 14.10316 | 9031 ft | 243 kts | 236° |
| 2026-04-29 20:23 | 40.65583 | 14.08508 | 8906 ft | 241 kts | 236° |
| 2026-04-29 20:24 | 40.64620 | 14.06704 | 8773 ft | 241 kts | 236° |
| 2026-04-29 20:24 | 40.63658 | 14.04905 | 8679 ft | 240 kts | 236° |
| 2026-04-29 20:24 | 40.62697 | 14.03104 | 8605 ft | 241 kts | 236° |
| 2026-04-29 20:24 | 40.61735 | 14.01305 | 8443 ft | 240 kts | 236° |
| 2026-04-29 20:25 | 40.60775 | 13.99509 | 8268 ft | 239 kts | 236° |
| 2026-04-29 20:25 | 40.59818 | 13.97718 | 8114 ft | 239 kts | 236° |
| 2026-04-29 20:25 | 40.58860 | 13.95928 | 7965 ft | 239 kts | 236° |
| 2026-04-29 20:25 | 40.57903 | 13.94143 | 7820 ft | 239 kts | 236° |
| 2026-04-29 20:26 | 40.56947 | 13.92361 | 7657 ft | 238 kts | 236° |
| 2026-04-29 20:26 | 40.56314 | 13.91181 | 7551 ft | 238 kts | 236° |
| 2026-04-29 20:26 | 40.55358 | 13.89400 | 7393 ft | 238 kts | 236° |
| 2026-04-29 20:26 | 40.54517 | 13.87548 | 7230 ft | 233 kts | 254° |
| 2026-04-29 20:27 | 40.54500 | 13.85494 | 7077 ft | 226 kts | 288° |
| 2026-04-29 20:27 | 40.55008 | 13.84273 | 6976 ft | 228 kts | 310° |
| 2026-04-29 20:27 | 40.56688 | 13.82587 | 6765 ft | 231 kts | 323° |
| 2026-04-29 20:27 | 40.58005 | 13.81377 | 6604 ft | 231 kts | 322° |
| 2026-04-29 20:28 | 40.59320 | 13.80168 | 6440 ft | 231 kts | 325° |
| 2026-04-29 20:28 | 40.60824 | 13.79486 | 6270 ft | 233 kts | 358° |
| 2026-04-29 20:28 | 40.62370 | 13.80062 | 6110 ft | 236 kts | 34° |
| 2026-04-29 20:28 | 40.63465 | 13.81672 | 5957 ft | 239 kts | 54° |
| 2026-04-29 20:29 | 40.64419 | 13.83470 | 5799 ft | 239 kts | 54° |
| 2026-04-29 20:29 | 40.65377 | 13.85255 | 5631 ft | 239 kts | 54° |
| 2026-04-29 20:29 | 40.66335 | 13.87036 | 5481 ft | 238 kts | 53° |
| 2026-04-29 20:29 | 40.67289 | 13.88810 | 5335 ft | 237 kts | 53° |
| 2026-04-29 20:30 | 40.68239 | 13.90580 | 5190 ft | 236 kts | 53° |
| 2026-04-29 20:30 | 40.69185 | 13.92344 | 5045 ft | 235 kts | 53° |
| 2026-04-29 20:30 | 40.70127 | 13.94101 | 4901 ft | 234 kts | 53° |
| 2026-04-29 20:30 | 40.71066 | 13.95852 | 4751 ft | 234 kts | 54° |
| 2026-04-29 20:31 | 40.72006 | 13.97606 | 4596 ft | 234 kts | 53° |
| 2026-04-29 20:31 | 40.72944 | 13.99354 | 4458 ft | 233 kts | 53° |
| 2026-04-29 20:31 | 40.73879 | 14.01096 | 4314 ft | 232 kts | 53° |
| 2026-04-29 20:31 | 40.74811 | 14.02833 | 4171 ft | 232 kts | 53° |
| 2026-04-29 20:32 | 40.75739 | 14.04564 | 4063 ft | 231 kts | 53° |
| 2026-04-29 20:32 | 40.76663 | 14.06287 | 3990 ft | 229 kts | 52° |
| 2026-04-29 20:32 | 40.77643 | 14.07944 | 3995 ft | 226 kts | 51° |
| 2026-04-29 20:32 | 40.78541 | 14.09566 | 3980 ft | 212 kts | 53° |
| 2026-04-29 20:33 | 40.79377 | 14.11148 | 3763 ft | 209 kts | 53° |
| 2026-04-29 20:33 | 40.80205 | 14.12730 | 3494 ft | 209 kts | 53° |
| 2026-04-29 20:33 | 40.81016 | 14.14280 | 3181 ft | 200 kts | 54° |
| 2026-04-29 20:33 | 40.81761 | 14.15706 | 2885 ft | 181 kts | 53° |
| 2026-04-29 20:34 | 40.82442 | 14.17011 | 2616 ft | 165 kts | 53° |
| 2026-04-29 20:34 | 40.83071 | 14.18213 | 2366 ft | 154 kts | 53° |
| 2026-04-29 20:34 | 40.83665 | 14.19350 | 2134 ft | 148 kts | 53° |
| 2026-04-29 20:34 | 40.84245 | 14.20460 | 1903 ft | 146 kts | 53° |
| 2026-04-29 20:35 | 40.84817 | 14.21557 | 1686 ft | 144 kts | 53° |
| 2026-04-29 20:35 | 40.85382 | 14.22638 | 1464 ft | 142 kts | 53° |
| 2026-04-29 20:35 | 40.85939 | 14.23709 | 1309 ft | 141 kts | 55° |
| 2026-04-29 20:35 | 40.86489 | 14.24781 | 1150 ft | 141 kts | 55° |
| 2026-04-29 20:36 | 40.87038 | 14.25852 | 997 ft | 140 kts | 54° |
| 2026-04-29 20:36 | 40.87579 | 14.26928 | 816 ft | 141 kts | 56° |
| 2026-04-29 20:36 | 40.88108 | 14.28019 | 571 ft | 141 kts | 57° |
| 2026-04-29 20:36 | 40.88622 | 14.29116 | 293 ft | 138 kts | 58° |
| 2026-04-29 20:37 | 40.89111 | 14.30127 | 336 ft | 135 kts | 57° |
| 2026-04-29 20:37 | 40.89642 | 14.31222 | 909 ft | 153 kts | 57° |
| 2026-04-29 20:37 | 40.90243 | 14.32482 | 1260 ft | 174 kts | 57° |
| 2026-04-29 20:37 | 40.90937 | 14.33943 | 1608 ft | 199 kts | 57° |
| 2026-04-29 20:38 | 40.91721 | 14.35569 | 2124 ft | 217 kts | 56° |
| 2026-04-29 20:38 | 40.92592 | 14.37245 | 2773 ft | 227 kts | 47° |
| 2026-04-29 20:38 | 40.93859 | 14.38442 | 2959 ft | 224 kts | 16° |
| 2026-04-29 20:38 | 40.95375 | 14.38635 | 3003 ft | 219 kts | 347° |
| 2026-04-29 20:39 | 40.96739 | 14.37838 | 3008 ft | 215 kts | 318° |
| 2026-04-29 20:39 | 40.97637 | 14.36299 | 3009 ft | 213 kts | 291° |
| 2026-04-29 20:39 | 40.97881 | 14.34388 | 3010 ft | 212 kts | 264° |
| 2026-04-29 20:39 | 40.97431 | 14.32543 | 3011 ft | 214 kts | 242° |
| 2026-04-29 20:40 | 40.96734 | 14.30831 | 3011 ft | 214 kts | 242° |
| 2026-04-29 20:40 | 40.96018 | 14.29072 | 3009 ft | 215 kts | 243° |
| 2026-04-29 20:40 | 40.95312 | 14.27330 | 3010 ft | 215 kts | 243° |
| 2026-04-29 20:40 | 40.94613 | 14.25609 | 3009 ft | 215 kts | 243° |
| 2026-04-29 20:41 | 40.93906 | 14.23866 | 3008 ft | 215 kts | 243° |
| 2026-04-29 20:41 | 40.93201 | 14.22123 | 3009 ft | 215 kts | 243° |
| 2026-04-29 20:41 | 40.92514 | 14.20363 | 3006 ft | 215 kts | 249° |
| 2026-04-29 20:41 | 40.92042 | 14.18490 | 3009 ft | 215 kts | 253° |
| 2026-04-29 20:42 | 40.91586 | 14.16609 | 3009 ft | 215 kts | 253° |
| 2026-04-29 20:42 | 40.91131 | 14.14730 | 3009 ft | 215 kts | 253° |
| 2026-04-29 20:42 | 40.90673 | 14.12849 | 3011 ft | 215 kts | 253° |
| 2026-04-29 20:42 | 40.90214 | 14.10967 | 3006 ft | 216 kts | 253° |
| 2026-04-29 20:43 | 40.89752 | 14.09074 | 3010 ft | 217 kts | 253° |
| 2026-04-29 20:43 | 40.89285 | 14.07176 | 3007 ft | 217 kts | 253° |
| 2026-04-29 20:43 | 40.88818 | 14.05275 | 3005 ft | 217 kts | 253° |
| 2026-04-29 20:43 | 40.88352 | 14.03378 | 3001 ft | 217 kts | 253° |
| 2026-04-29 20:44 | 40.87885 | 14.01474 | 3002 ft | 217 kts | 253° |
| 2026-04-29 20:44 | 40.87422 | 13.99582 | 3008 ft | 217 kts | 253° |
| 2026-04-29 20:44 | 40.86956 | 13.97685 | 3004 ft | 217 kts | 252° |
| 2026-04-29 20:44 | 40.86214 | 13.95960 | 3002 ft | 219 kts | 226° |
| 2026-04-29 20:45 | 40.84923 | 13.94913 | 3004 ft | 222 kts | 196° |
| 2026-04-29 20:45 | 40.83389 | 13.94874 | 3001 ft | 224 kts | 165° |
| 2026-04-29 20:45 | 40.82043 | 13.95883 | 3001 ft | 226 kts | 134° |
| 2026-04-29 20:45 | 40.80996 | 13.97435 | 3002 ft | 227 kts | 131° |
| 2026-04-29 20:46 | 40.79970 | 13.98986 | 3004 ft | 227 kts | 131° |
| 2026-04-29 20:46 | 40.78931 | 14.00555 | 3006 ft | 227 kts | 131° |
| 2026-04-29 20:46 | 40.77931 | 14.02171 | 3003 ft | 227 kts | 121° |
| 2026-04-29 20:46 | 40.77337 | 14.04086 | 3004 ft | 226 kts | 100° |
| 2026-04-29 20:47 | 40.77288 | 14.06144 | 3010 ft | 225 kts | 79° |
| 2026-04-29 20:47 | 40.77782 | 14.08084 | 3012 ft | 223 kts | 58° |
| 2026-04-29 20:47 | 40.78643 | 14.09779 | 3011 ft | 223 kts | 53° |
| 2026-04-29 20:47 | 40.79536 | 14.11457 | 3010 ft | 223 kts | 53° |
| 2026-04-29 20:48 | 40.80415 | 14.13130 | 3016 ft | 223 kts | 53° |
| 2026-04-29 20:48 | 40.81295 | 14.14812 | 2951 ft | 223 kts | 54° |
| 2026-04-29 20:48 | 40.82168 | 14.16482 | 2690 ft | 217 kts | 54° |
| 2026-04-29 20:48 | 40.82999 | 14.18072 | 2389 ft | 205 kts | 54° |
| 2026-04-29 20:49 | 40.83789 | 14.19586 | 2082 ft | 196 kts | 53° |
| 2026-04-29 20:49 | 40.84540 | 14.21025 | 1798 ft | 185 kts | 53° |
| 2026-04-29 20:49 | 40.85245 | 14.22377 | 1521 ft | 171 kts | 54° |
| 2026-04-29 20:49 | 40.85871 | 14.23605 | 1373 ft | 155 kts | 54° |
| 2026-04-29 20:50 | 40.86469 | 14.24749 | 1129 ft | 149 kts | 54° |
| 2026-04-29 20:50 | 40.87064 | 14.25858 | 892 ft | 147 kts | 54° |
| 2026-04-29 20:50 | 40.87619 | 14.26991 | 711 ft | 147 kts | 57° |
| 2026-04-29 20:50 | 40.88163 | 14.28138 | 453 ft | 148 kts | 57° |
| 2026-04-29 20:51 | 40.88696 | 14.29263 | 286 ft | 134 kts | 57° |
| 2026-04-29 20:51 | 40.89025 | 14.29954 | 242 ft | 47 kts | 58° |
| 2026-04-29 20:51 | 40.89106 | 14.30187 | 235 ft | 17 kts | 106° |
| 2026-04-29 20:51 | 40.89018 | 14.30258 | 235 ft | 10 kts | 197° |
| 2026-04-29 20:52 | 40.88975 | 14.30213 | 237 ft | 6 kts | 228° |
| 2026-04-29 20:52 | 40.88938 | 14.30151 | 240 ft | 14 kts | 232° |
| 2026-04-29 20:52 | 40.88857 | 14.30012 | 245 ft | 24 kts | 232° |